KSNA/SNA METAR and TAF weather

Enter ICAO airport designator
Station Type Date Time Source
KSNA METAR 2022/05/23 13:53 UTC NOAA

KSNA 231353Z 00000KT 10SM OVC012 16/11 A2995 RMK AO2 SLP142 T01560111


Station Type Date Time Source
KSNA Decoded METAR 2022/05/23 13:53 UTC NOAA

SANTA ANA WAYNE ORANGE CTY, CA, United States (KSNA) 33-41N 117-52W 15M
May 23, 2022 - 09:53 AM EDT / 2022.05.23 1353 UTC
Wind: Calm:0
Visibility: 10 mile(s):0
Sky conditions: overcast
Temperature: 60.1 F (15.6 C)
Dew Point: 52.0 F (11.1 C)
Relative Humidity: 74%
Pressure (altimeter): 29.95 in. Hg (1014 hPa)
ob: KSNA 231353Z 00000KT 10SM OVC012 16/11 A2995 RMK AO2 SLP142 T01560111
cycle: 14

Station Type Date Time Source
KSNA TAF 2022/05/23 12:30 UTC NOAA

TAF KSNA 231128Z 2312/2412 12005KT P6SM OVC014
FM232000 21008KT P6SM SCT015
FM240300 20005KT P6SM OVC010

Example: see airport list